Time;durP1;ratioP1;P1;durP2;ratioP2;P2;SDS_P1;SDS_P2;PMS_P1;PMS_P2;Temp;Humidity;BMP_temperature;BMP_pressure;BME280_temperature;BME280_humidity;BME280_pressure;Samples;Min_cycle;Max_cycle;Signal;HPM_P1;HPM_P2
2022/09/03 00:00:34;;;;;;;1.45;0.60;;;20.00;53.10;;;;;;5029699;28;20100;-58
2022/09/03 00:03:07;;;;;;;1.73;0.50;;;20.00;53.20;;;;;;5029562;28;20436;-58
2022/09/03 00:06:10;;;;;;;2.10;0.70;;;19.90;53.30;;;;;;5031292;28;20096;-59
2022/09/03 00:08:43;;;;;;;2.13;0.60;;;19.90;53.40;;;;;;5030584;28;20580;-58
2022/09/03 00:11:24;;;;;;;0.75;0.55;;;19.80;53.70;;;;;;5029625;28;20044;-58
2022/09/03 00:14:08;;;;;;;1.58;0.70;;;19.80;53.70;;;;;;5031498;28;20032;-58
2022/09/03 00:16:41;;;;;;;1.45;0.70;;;19.70;53.80;;;;;;5030898;28;20118;-58
2022/09/03 00:19:07;;;;;;;1.75;0.55;;;19.70;54.00;;;;;;5028821;28;20029;-58
2022/09/03 00:21:44;;;;;;;1.50;0.60;;;19.60;54.10;;;;;;5030540;28;20032;-58
2022/09/03 00:24:13;;;;;;;1.52;0.50;;;19.60;54.20;;;;;;5029202;28;20037;-58
2022/09/03 00:26:42;;;;;;;1.77;0.50;;;19.50;54.30;;;;;;5029926;28;20025;-58
2022/09/03 00:29:24;;;;;;;1.25;0.50;;;19.50;54.40;;;;;;5030237;28;20547;-58
2022/09/03 00:31:55;;;;;;;2.13;0.70;;;19.50;54.50;;;;;;5029161;28;20484;-58
2022/09/03 00:34:26;;;;;;;1.02;0.60;;;19.50;54.70;;;;;;5029858;28;20025;-58
2022/09/03 00:36:52;;;;;;;1.05;0.77;;;19.50;54.80;;;;;;5027404;28;20029;-58
2022/09/03 00:39:23;;;;;;;0.98;0.40;;;19.40;54.80;;;;;;5029865;28;20048;-58
2022/09/03 00:42:16;;;;;;;2.95;0.63;;;19.40;54.90;;;;;;5030166;28;20351;-57
2022/09/03 00:44:54;;;;;;;1.63;0.60;;;19.40;54.90;;;;;;5029624;28;20025;-58
2022/09/03 00:47:45;;;;;;;1.70;0.65;;;19.30;55.10;;;;;;5029868;28;20032;-58
2022/09/03 00:50:16;;;;;;;1.20;0.70;;;19.30;55.10;;;;;;5029946;28;20025;-58
2022/09/03 00:52:46;;;;;;;1.45;0.60;;;19.20;55.20;;;;;;5030131;28;20108;-58
2022/09/03 00:55:23;;;;;;;1.50;0.60;;;19.20;55.20;;;;;;5029951;28;20029;-58
2022/09/03 00:58:28;;;;;;;1.17;0.65;;;19.20;55.30;;;;;;5028358;28;20486;-58
2022/09/03 01:00:54;;;;;;;1.25;0.50;;;19.20;55.40;;;;;;5030045;28;20056;-58
2022/09/03 01:03:39;;;;;;;1.60;0.50;;;19.10;55.40;;;;;;5029678;28;20064;-58
2022/09/03 01:06:07;;;;;;;2.80;0.52;;;19.10;55.40;;;;;;5029716;28;20017;-58
2022/09/03 01:08:56;;;;;;;2.25;0.80;;;19.10;55.50;;;;;;5017926;28;20547;-58
2022/09/03 01:11:25;;;;;;;2.50;0.60;;;19.10;55.70;;;;;;5029873;28;20033;-58
2022/09/03 01:14:29;;;;;;;1.48;0.60;;;19.00;55.80;;;;;;5029900;28;20021;-58
2022/09/03 01:17:31;;;;;;;1.60;0.50;;;19.10;55.80;;;;;;5028890;28;20409;-58
2022/09/03 01:20:28;;;;;;;1.85;0.60;;;19.00;55.80;;;;;;5027796;28;20485;-58
2022/09/03 01:23:07;;;;;;;1.42;0.70;;;18.90;56.00;;;;;;5029571;28;20037;-58
2022/09/03 01:25:59;;;;;;;3.30;0.53;;;18.90;56.00;;;;;;5027803;28;20021;-58
2022/09/03 01:28:51;;;;;;;1.58;0.50;;;18.90;55.90;;;;;;5029405;28;20017;-58
2022/09/03 01:31:36;;;;;;;4.30;0.60;;;18.90;56.00;;;;;;5028857;28;20037;-58
2022/09/03 01:34:10;;;;;;;1.67;0.65;;;18.90;56.20;;;;;;5029193;28;20029;-58
2022/09/03 01:37:14;;;;;;;1.83;0.60;;;18.80;56.30;;;;;;5029014;28;20095;-58
2022/09/03 01:39:54;;;;;;;1.48;0.70;;;18.80;56.30;;;;;;5029061;28;20124;-58
2022/09/03 01:42:35;;;;;;;1.42;0.60;;;18.70;56.30;;;;;;5028878;28;20017;-58
2022/09/03 01:45:27;;;;;;;2.08;0.70;;;18.70;56.30;;;;;;5029047;28;20017;-58
2022/09/03 01:48:18;;;;;;;2.45;0.68;;;18.70;56.40;;;;;;5029319;28;20033;-58
2022/09/03 01:51:02;;;;;;;1.30;0.60;;;18.70;56.50;;;;;;5028622;28;20594;-58
2022/09/03 01:53:58;;;;;;;0.82;0.50;;;18.70;56.60;;;;;;5027217;28;20466;-58
2022/09/03 01:56:42;;;;;;;1.73;0.73;;;18.60;56.60;;;;;;5028722;28;20489;-58
2022/09/03 01:59:19;;;;;;;0.95;0.45;;;18.60;56.70;;;;;;5028901;28;20067;-58
2022/09/03 02:01:58;;;;;;;2.40;0.80;;;18.50;56.80;;;;;;5029037;28;20620;-58
2022/09/03 02:04:26;;;;;;;1.58;0.55;;;18.50;56.90;;;;;;5029136;28;20048;-58
2022/09/03 02:06:53;;;;;;;1.08;0.60;;;18.50;57.00;;;;;;5028463;28;20141;-57
2022/09/03 02:09:19;;;;;;;2.55;0.70;;;18.50;57.10;;;;;;5028559;28;20030;-58
2022/09/03 02:11:52;;;;;;;0.82;0.50;;;18.40;57.30;;;;;;5028553;28;20401;-58
2022/09/03 02:14:18;;;;;;;1.48;1.00;;;18.40;57.40;;;;;;5028818;28;20040;-58
2022/09/03 02:16:45;;;;;;;3.10;0.82;;;18.40;57.60;;;;;;5028620;28;20041;-58
2022/09/03 02:19:15;;;;;;;1.20;0.75;;;18.40;57.70;;;;;;5028416;28;20092;-58
2022/09/03 02:21:48;;;;;;;1.40;0.60;;;18.40;57.90;;;;;;5027017;28;20061;-58
2022/09/03 02:24:13;;;;;;;2.28;0.47;;;18.40;58.10;;;;;;5028474;28;20029;-57
2022/09/03 02:26:39;;;;;;;1.30;0.70;;;18.30;58.10;;;;;;5028324;28;20045;-58
2022/09/03 02:29:04;;;;;;;2.15;0.70;;;18.30;58.10;;;;;;5028217;28;20488;-58
2022/09/03 02:31:30;;;;;;;4.13;0.80;;;18.30;58.10;;;;;;5028660;28;20029;-58
2022/09/03 02:33:56;;;;;;;1.45;0.90;;;18.30;58.40;;;;;;5028413;28;20026;-58
2022/09/03 02:36:44;;;;;;;2.08;0.80;;;18.20;58.50;;;;;;5026784;28;20478;-58
2022/09/03 02:39:10;;;;;;;1.65;0.57;;;18.20;58.30;;;;;;5028236;28;20033;-58
2022/09/03 02:41:36;;;;;;;1.88;0.77;;;18.10;58.40;;;;;;5032734;28;20404;-58
2022/09/03 02:44:24;;;;;;;1.17;0.70;;;18.10;58.50;;;;;;5024415;28;20026;-58
2022/09/03 02:46:55;;;;;;;1.17;0.52;;;18.10;58.50;;;;;;5032146;28;20020;-58
2022/09/03 02:49:21;;;;;;;1.77;0.88;;;18.10;58.60;;;;;;5032288;28;20028;-58
2022/09/03 02:51:46;;;;;;;1.77;0.80;;;18.10;58.60;;;;;;5032206;28;20477;-58
2022/09/03 02:54:12;;;;;;;3.35;0.70;;;18.00;58.60;;;;;;5032565;28;20478;-58
2022/09/03 02:56:38;;;;;;;2.45;0.70;;;18.00;58.70;;;;;;5031983;28;20428;-58
2022/09/03 02:59:06;;;;;;;2.22;0.98;;;18.00;59.00;;;;;;5032058;28;20029;-58
2022/09/03 03:01:31;;;;;;;3.13;0.85;;;18.00;59.40;;;;;;5032083;28;20472;-58
2022/09/03 03:03:57;;;;;;;4.10;0.88;;;17.90;59.30;;;;;;5032408;28;20488;-57
2022/09/03 03:06:22;;;;;;;2.33;0.70;;;17.90;59.50;;;;;;5016847;28;20088;-58
2022/09/03 03:08:49;;;;;;;1.35;0.63;;;17.90;59.80;;;;;;5032086;28;20113;-58
2022/09/03 03:11:17;;;;;;;1.20;0.73;;;17.90;59.80;;;;;;5032433;28;20036;-58
2022/09/03 03:13:43;;;;;;;2.60;0.98;;;17.90;60.20;;;;;;5031796;28;20025;-58
2022/09/03 03:16:09;;;;;;;2.83;0.73;;;17.80;60.10;;;;;;5031716;28;20053;-58
2022/09/03 03:18:35;;;;;;;1.88;0.70;;;17.80;60.10;;;;;;5032000;28;20057;-58
2022/09/03 03:21:09;;;;;;;2.35;0.98;;;17.80;60.30;;;;;;5031543;28;20481;-58
2022/09/03 03:23:35;;;;;;;2.88;0.70;;;17.80;60.30;;;;;;5031913;28;20025;-58
2022/09/03 03:26:02;;;;;;;1.92;0.75;;;17.70;60.40;;;;;;5031426;28;20084;-57
2022/09/03 03:28:31;;;;;;;2.40;0.90;;;17.70;60.40;;;;;;5031795;28;20391;-58
2022/09/03 03:30:57;;;;;;;2.58;1.13;;;17.70;60.40;;;;;;5030547;28;20076;-58
2022/09/03 03:33:22;;;;;;;1.70;0.60;;;17.70;60.70;;;;;;5029343;28;20382;-57
2022/09/03 03:35:48;;;;;;;1.67;0.70;;;17.70;60.80;;;;;;5030110;28;20597;-58
2022/09/03 03:38:14;;;;;;;2.15;0.70;;;17.70;60.90;;;;;;5026281;28;20091;-58
2022/09/03 03:40:40;;;;;;;1.75;0.50;;;17.60;60.90;;;;;;5026051;28;20021;-58
2022/09/03 03:43:05;;;;;;;1.65;0.70;;;17.60;61.00;;;;;;5030244;28;20040;-58
2022/09/03 03:45:31;;;;;;;2.90;0.80;;;17.60;61.10;;;;;;5030312;28;20024;-58
2022/09/03 03:47:58;;;;;;;1.65;0.70;;;17.50;61.20;;;;;;5029747;28;20108;-58
2022/09/03 03:50:24;;;;;;;1.63;1.05;;;17.50;61.30;;;;;;5030241;28;20072;-57
2022/09/03 03:52:49;;;;;;;1.20;0.68;;;17.50;61.40;;;;;;5030268;28;20025;-62
2022/09/03 03:55:15;;;;;;;1.73;0.80;;;17.50;61.50;;;;;;5028654;28;20029;-58
2022/09/03 03:57:41;;;;;;;2.15;0.60;;;17.40;61.60;;;;;;5029553;28;20412;-58
2022/09/03 04:00:07;;;;;;;1.20;0.50;;;17.40;61.70;;;;;;5028610;28;20033;-58
2022/09/03 04:02:33;;;;;;;0.95;0.50;;;17.40;61.70;;;;;;5023108;28;20028;-58
2022/09/03 04:04:59;;;;;;;1.38;0.57;;;17.40;61.80;;;;;;5029808;28;20029;-58
2022/09/03 04:07:24;;;;;;;1.00;0.40;;;17.30;61.70;;;;;;5029778;28;20017;-58
2022/09/03 04:09:50;;;;;;;0.90;0.60;;;17.30;61.70;;;;;;5030168;28;20032;-58
2022/09/03 04:12:16;;;;;;;1.35;0.57;;;17.30;61.60;;;;;;5029693;28;20025;-57
2022/09/03 04:14:41;;;;;;;1.10;0.60;;;17.30;61.60;;;;;;5029456;28;20029;-58
2022/09/03 04:17:07;;;;;;;1.05;0.50;;;17.20;61.60;;;;;;5029655;28;20040;-58
2022/09/03 04:19:32;;;;;;;1.33;0.60;;;17.20;61.70;;;;;;5029930;28;20397;-58
2022/09/03 04:21:58;;;;;;;2.03;0.60;;;17.20;61.90;;;;;;5029630;28;20075;-58
2022/09/03 04:24:24;;;;;;;1.30;0.50;;;17.20;62.10;;;;;;5029644;28;20030;-57
2022/09/03 04:26:49;;;;;;;3.20;0.68;;;17.10;62.20;;;;;;5029344;28;20032;-58
2022/09/03 04:29:15;;;;;;;1.90;0.60;;;17.10;62.30;;;;;;4993638;28;1024311;-58
2022/09/03 04:32:51;;;;;;;1.63;0.70;;;17.00;62.40;;;;;;5030279;28;20287;-58
2022/09/03 04:34:26;;;;;;;1.70;0.68;;;17.00;62.50;;;;;;5028036;28;20025;-58
2022/09/03 04:36:52;;;;;;;1.70;0.60;;;17.00;62.60;;;;;;5028831;28;20163;-58
2022/09/03 04:39:18;;;;;;;1.17;0.50;;;17.00;62.70;;;;;;5030052;28;20029;-57
2022/09/03 04:41:44;;;;;;;0.98;0.60;;;16.90;62.70;;;;;;5030495;28;20021;-58
2022/09/03 04:44:10;;;;;;;1.65;0.60;;;16.90;62.70;;;;;;5030279;28;20021;-58
2022/09/03 04:46:35;;;;;;;1.30;0.60;;;16.90;62.90;;;;;;5030380;28;20044;-58
2022/09/03 04:49:01;;;;;;;1.92;0.65;;;16.80;63.10;;;;;;5030035;28;20064;-58
2022/09/03 04:51:28;;;;;;;0.98;0.68;;;16.80;63.30;;;;;;5030154;28;20017;-58
2022/09/03 04:53:57;;;;;;;1.35;0.60;;;16.80;63.40;;;;;;5030100;28;20536;-58
2022/09/03 04:56:28;;;;;;;1.33;0.57;;;16.80;63.50;;;;;;5030770;28;20021;-57
2022/09/03 04:58:58;;;;;;;1.63;0.60;;;16.70;63.50;;;;;;5032487;28;20502;-58
2022/09/03 05:01:26;;;;;;;1.10;0.55;;;16.70;63.60;;;;;;5030779;28;20021;-58
2022/09/03 05:03:52;;;;;;;1.75;0.60;;;16.60;63.60;;;;;;5032889;28;20487;-58
2022/09/03 05:06:19;;;;;;;1.00;0.50;;;16.60;63.50;;;;;;5032675;28;20022;-58
2022/09/03 05:08:48;;;;;;;1.13;0.52;;;16.60;63.40;;;;;;5033416;28;20040;-58
2022/09/03 05:11:14;;;;;;;0.90;0.55;;;16.60;63.40;;;;;;5016497;28;20030;-58
2022/09/03 05:13:39;;;;;;;1.65;0.60;;;16.60;63.40;;;;;;5024862;28;20041;-58
2022/09/03 05:16:07;;;;;;;0.90;0.60;;;16.50;63.30;;;;;;5032449;28;20037;-58
2022/09/03 05:18:34;;;;;;;1.42;0.88;;;16.50;63.40;;;;;;5033194;28;20112;-58
2022/09/03 05:21:05;;;;;;;2.17;0.68;;;16.50;63.40;;;;;;5032537;28;20017;-57
2022/09/03 05:23:34;;;;;;;1.83;0.60;;;16.50;63.40;;;;;;5031980;28;20017;-57
2022/09/03 05:26:03;;;;;;;1.17;0.60;;;16.50;63.60;;;;;;5032895;28;20029;-58
2022/09/03 05:28:30;;;;;;;2.15;0.60;;;16.40;63.60;;;;;;5033170;28;20339;-58
2022/09/03 05:31:00;;;;;;;3.55;1.02;;;16.40;63.80;;;;;;5032798;28;20076;-58
2022/09/03 05:33:27;;;;;;;1.95;0.63;;;16.40;64.10;;;;;;5032627;28;20021;-58
2022/09/03 05:35:53;;;;;;;1.80;0.80;;;16.40;64.30;;;;;;5031825;28;20108;-59
2022/09/03 05:38:19;;;;;;;1.00;0.80;;;16.40;64.70;;;;;;5031429;28;20033;-57
2022/09/03 05:40:45;;;;;;;1.80;0.88;;;16.30;65.10;;;;;;5030441;28;20022;-58
2022/09/03 05:43:10;;;;;;;1.58;0.88;;;16.30;65.30;;;;;;5032212;28;20438;-58
2022/09/03 05:45:36;;;;;;;0.93;0.70;;;16.30;65.50;;;;;;5032238;28;20026;-58
2022/09/03 05:48:02;;;;;;;1.60;0.90;;;16.30;65.60;;;;;;5031164;28;20068;-58
2022/09/03 05:50:27;;;;;;;1.95;0.70;;;16.30;65.80;;;;;;5031573;28;20094;-58
2022/09/03 05:52:53;;;;;;;2.28;0.98;;;16.30;66.20;;;;;;5030802;28;20033;-58
2022/09/03 05:55:19;;;;;;;1.30;0.73;;;16.30;66.50;;;;;;5031580;28;20546;-58
2022/09/03 05:57:45;;;;;;;1.33;0.70;;;16.30;66.80;;;;;;5032543;28;20037;-58
2022/09/03 06:00:11;;;;;;;1.17;0.82;;;16.30;66.80;;;;;;5032105;28;20159;-58
2022/09/03 06:02:36;;;;;;;2.70;0.65;;;16.30;67.00;;;;;;5032264;28;20096;-58
2022/09/03 06:05:02;;;;;;;1.35;0.60;;;16.30;67.00;;;;;;5032212;28;20096;-58
2022/09/03 06:07:28;;;;;;;2.03;0.73;;;16.30;67.20;;;;;;5031239;28;20123;-58
2022/09/03 06:09:53;;;;;;;2.80;0.70;;;16.30;67.30;;;;;;5030762;28;20132;-57
2022/09/03 06:12:19;;;;;;;1.85;0.77;;;16.30;67.20;;;;;;5031779;28;20493;-58
2022/09/03 06:14:44;;;;;;;1.35;0.73;;;16.30;67.20;;;;;;5032021;28;20029;-58
2022/09/03 06:17:11;;;;;;;1.63;0.85;;;16.40;67.30;;;;;;5032076;28;20033;-57
2022/09/03 06:19:37;;;;;;;1.75;0.60;;;16.40;67.30;;;;;;5030710;28;20548;-57
2022/09/03 06:22:03;;;;;;;0.88;0.52;;;16.50;67.50;;;;;;5030818;28;20108;-58
2022/09/03 06:24:28;;;;;;;1.88;0.70;;;16.50;67.50;;;;;;5030118;28;20101;-58
2022/09/03 06:26:55;;;;;;;2.50;0.70;;;16.50;67.40;;;;;;5031439;28;20140;-58
2022/09/03 06:29:20;;;;;;;2.67;0.50;;;16.50;67.30;;;;;;5031331;28;20041;-58
2022/09/03 06:31:50;;;;;;;1.23;0.60;;;16.60;67.40;;;;;;5032086;28;20029;-58
2022/09/03 06:34:17;;;;;;;2.72;0.60;;;16.60;67.40;;;;;;5028236;28;20026;-58
2022/09/03 06:36:43;;;;;;;2.35;0.70;;;16.60;67.50;;;;;;5028553;28;20504;-58
2022/09/03 06:39:08;;;;;;;1.13;0.50;;;16.60;67.40;;;;;;5029071;28;20443;-58
2022/09/03 06:41:34;;;;;;;1.20;0.60;;;16.70;67.40;;;;;;5030950;28;20025;-57
2022/09/03 06:44:02;;;;;;;1.10;0.63;;;16.70;67.40;;;;;;5030279;28;20024;-58
2022/09/03 06:46:30;;;;;;;0.68;0.50;;;16.80;67.30;;;;;;5030989;28;20024;-58
2022/09/03 06:48:56;;;;;;;3.10;0.70;;;16.80;67.20;;;;;;5030569;28;20374;-58
2022/09/03 06:51:24;;;;;;;1.67;0.60;;;16.90;67.20;;;;;;5030783;28;20028;-58
2022/09/03 06:53:53;;;;;;;1.70;0.60;;;16.90;67.00;;;;;;5030827;28;20045;-57
2022/09/03 06:56:26;;;;;;;1.60;0.70;;;17.00;67.00;;;;;;5031808;28;20025;-57
2022/09/03 06:58:59;;;;;;;1.95;0.73;;;17.10;66.90;;;;;;5031855;28;20112;-58
2022/09/03 07:01:29;;;;;;;1.13;0.60;;;17.20;66.80;;;;;;5031858;28;20021;-57
2022/09/03 07:04:00;;;;;;;2.58;0.50;;;17.20;66.70;;;;;;5031945;28;20028;-57
2022/09/03 07:06:32;;;;;;;2.45;0.70;;;17.30;66.50;;;;;;5031628;28;20473;-58
2022/09/03 07:08:59;;;;;;;1.60;0.50;;;17.30;66.70;;;;;;5030750;28;20030;-57
2022/09/03 07:11:28;;;;;;;1.80;0.50;;;17.40;66.60;;;;;;5031565;28;20022;-58
2022/09/03 07:13:54;;;;;;;1.88;0.68;;;17.50;66.40;;;;;;5031389;28;20045;-58
2022/09/03 07:16:23;;;;;;;1.85;0.40;;;17.50;66.00;;;;;;5031405;28;20029;-58
2022/09/03 07:18:49;;;;;;;1.90;0.60;;;17.60;65.40;;;;;;5031377;28;20029;-57
2022/09/03 07:21:18;;;;;;;1.10;0.60;;;17.70;64.80;;;;;;5031504;28;20060;-58
2022/09/03 07:23:44;;;;;;;3.30;0.80;;;17.80;64.10;;;;;;5034946;28;20120;-58
2022/09/03 07:26:13;;;;;;;2.03;0.70;;;17.90;63.80;;;;;;5034635;28;20083;-58
2022/09/03 07:28:40;;;;;;;1.10;0.47;;;18.00;62.90;;;;;;5035495;28;20032;-58
2022/09/03 07:31:10;;;;;;;1.02;0.40;;;18.00;63.50;;;;;;5034622;28;20077;-58
2022/09/03 07:33:36;;;;;;;1.45;0.60;;;18.10;62.10;;;;;;5034947;28;20057;-58
2022/09/03 07:36:12;;;;;;;3.42;0.73;;;18.20;62.20;;;;;;5035006;28;20021;-58
2022/09/03 07:38:38;;;;;;;1.45;0.60;;;18.30;61.70;;;;;;5035002;28;20030;-58
2022/09/03 07:41:06;;;;;;;1.73;0.70;;;18.40;61.80;;;;;;5034988;28;20543;-58
2022/09/03 07:43:42;;;;;;;4.20;0.80;;;18.40;61.30;;;;;;5033394;28;20108;-58
2022/09/03 07:46:11;;;;;;;1.63;0.90;;;18.50;60.40;;;;;;5035089;28;20016;-58
2022/09/03 07:48:40;;;;;;;;;;;18.60;60.60;;;;;;5034891;28;20014;-58
2022/09/03 07:51:07;;;;;;;2.00;0.50;;;18.70;60.70;;;;;;5034749;28;19905;-58
2022/09/03 07:53:33;;;;;;;1.33;0.50;;;18.70;61.00;;;;;;5034912;28;20033;-58
2022/09/03 07:56:04;;;;;;;1.58;0.70;;;18.90;60.60;;;;;;5034781;28;20374;-58
2022/09/03 07:58:31;;;;;;;1.58;0.60;;;19.00;60.40;;;;;;5033108;28;20056;-58
2022/09/03 08:00:57;;;;;;;1.42;0.60;;;19.00;60.00;;;;;;5034393;28;20022;-58
2022/09/03 08:03:23;;;;;;;6.50;0.63;;;19.10;60.00;;;;;;5022084;28;20021;-57
2022/09/03 08:05:48;;;;;;;3.90;0.68;;;19.20;59.70;;;;;;5034190;28;20385;-57
2022/09/03 08:08:14;;;;;;;3.03;0.70;;;19.30;59.50;;;;;;5034446;28;20490;-58
2022/09/03 08:10:40;;;;;;;2.05;0.60;;;19.40;59.30;;;;;;5047333;28;20445;-58
2022/09/03 08:13:06;;;;;;;1.38;0.57;;;19.40;58.90;;;;;;5034210;28;20032;-58
2022/09/03 08:15:33;;;;;;;1.42;0.50;;;19.50;59.00;;;;;;5034202;28;20021;-57
2022/09/03 08:17:59;;;;;;;1.00;0.50;;;19.60;59.00;;;;;;5034319;28;20109;-58
2022/09/03 08:20:26;;;;;;;1.10;0.47;;;19.70;58.60;;;;;;5034278;28;20025;-58
2022/09/03 08:22:52;;;;;;;4.00;0.80;;;19.80;57.70;;;;;;5034185;28;20021;-57
2022/09/03 08:25:18;;;;;;;2.88;0.70;;;19.90;57.20;;;;;;5034296;28;20036;-57
2022/09/03 08:27:43;;;;;;;1.80;0.60;;;20.00;56.80;;;;;;5033794;28;20211;-57
2022/09/03 08:30:10;;;;;;;3.75;0.70;;;20.10;56.50;;;;;;5023740;28;20137;-57
2022/09/03 08:32:37;;;;;;;4.20;0.93;;;20.20;56.60;;;;;;5030379;28;20104;-58
2022/09/03 08:35:06;;;;;;;1.88;0.65;;;20.30;56.30;;;;;;5032930;28;20025;-57
2022/09/03 08:37:33;;;;;;;3.20;0.73;;;20.40;55.70;;;;;;5033361;28;20030;-58
2022/09/03 08:39:59;;;;;;;3.92;0.90;;;20.40;55.90;;;;;;5033887;28;20025;-57
2022/09/03 08:42:39;;;;;;;1.10;0.50;;;20.50;56.30;;;;;;5025986;28;20018;-58
2022/09/03 08:45:09;;;;;;;2.42;0.60;;;20.60;56.20;;;;;;5029256;28;20115;-58
2022/09/03 08:47:50;;;;;;;2.03;0.70;;;20.70;56.20;;;;;;5033619;28;20430;-57
2022/09/03 08:50:25;;;;;;;1.30;0.50;;;20.80;56.20;;;;;;5033085;28;20095;-57
2022/09/03 08:53:08;;;;;;;3.35;0.65;;;20.90;56.20;;;;;;5033767;28;20033;-58
2022/09/03 08:55:49;;;;;;;1.30;0.60;;;21.00;55.50;;;;;;5023100;28;20048;-59
2022/09/03 08:58:21;;;;;;;3.13;0.80;;;21.00;55.00;;;;;;5033722;28;20044;-57
2022/09/03 09:01:04;;;;;;;1.40;0.80;;;21.10;55.20;;;;;;5033695;28;20025;-58
2022/09/03 09:03:48;;;;;;;2.25;0.60;;;21.10;55.10;;;;;;5034201;28;20108;-58
2022/09/03 09:06:22;;;;;;;1.33;0.60;;;21.20;55.60;;;;;;5032848;28;20065;-58
2022/09/03 09:09:01;;;;;;;1.05;0.40;;;21.30;55.00;;;;;;5033483;28;20083;-58
2022/09/03 09:11:52;;;;;;;0.68;0.40;;;21.40;55.00;;;;;;5033339;28;20460;-57
2022/09/03 09:14:28;;;;;;;2.58;0.80;;;21.50;54.90;;;;;;5032916;28;20499;-57
2022/09/03 09:17:15;;;;;;;1.65;0.68;;;21.60;54.20;;;;;;5033094;28;20033;-57
2022/09/03 09:19:47;;;;;;;2.00;0.70;;;21.70;54.10;;;;;;5022398;28;20025;-58
2022/09/03 09:22:34;;;;;;;3.03;0.80;;;21.80;53.60;;;;;;5032413;28;20036;-58
2022/09/03 09:25:04;;;;;;;3.38;1.10;;;21.90;53.00;;;;;;5033404;28;20421;-57
2022/09/03 09:27:32;;;;;;;1.75;0.60;;;21.90;53.10;;;;;;5031334;28;20026;-57
2022/09/03 09:30:00;;;;;;;1.02;0.50;;;22.00;53.20;;;;;;5032258;28;20060;-57
2022/09/03 09:32:26;;;;;;;3.73;0.67;;;22.00;53.00;;;;;;5032028;28;20032;-57
2022/09/03 09:34:53;;;;;;;2.20;0.70;;;22.10;52.20;;;;;;5032140;28;20029;-57
2022/09/03 09:37:19;;;;;;;3.13;0.90;;;22.20;52.60;;;;;;5031799;28;20098;-58
2022/09/03 09:39:56;;;;;;;1.52;0.55;;;22.20;51.90;;;;;;5031375;28;20037;-58
2022/09/03 09:42:22;;;;;;;1.52;0.85;;;22.30;52.50;;;;;;5031727;28;20585;-57
2022/09/03 09:44:48;;;;;;;1.88;0.60;;;22.40;52.70;;;;;;5031268;28;20112;-58
2022/09/03 09:47:26;;;;;;;2.65;0.77;;;22.50;51.80;;;;;;5030282;28;20486;-58
2022/09/03 09:49:55;;;;;;;3.70;0.60;;;22.60;52.00;;;;;;5031193;28;20037;-58
2022/09/03 09:52:24;;;;;;;1.17;0.60;;;22.70;51.90;;;;;;5031178;28;20026;-57
2022/09/03 09:54:51;;;;;;;2.10;0.70;;;22.80;51.90;;;;;;5028661;28;20033;-58
2022/09/03 09:57:24;;;;;;;1.58;0.60;;;22.90;51.20;;;;;;5031403;28;20091;-58
2022/09/03 10:00:06;;;;;;;1.67;0.80;;;23.00;50.80;;;;;;5029197;28;20474;-58
2022/09/03 10:02:34;;;;;;;1.42;0.70;;;23.10;50.90;;;;;;5028235;28;20049;-58
2022/09/03 10:05:23;;;;;;;3.90;1.13;;;23.10;51.00;;;;;;5031405;28;20478;-58
2022/09/03 10:07:59;;;;;;;;;;;23.30;50.40;;;;;;5029256;28;20022;-58
2022/09/03 10:10:27;;;;;;;2.00;0.68;;;23.30;50.50;;;;;;5031013;28;20320;-57
2022/09/03 10:13:18;;;;;;;1.95;0.77;;;23.50;51.20;;;;;;5031071;28;20028;-58
2022/09/03 10:15:53;;;;;;;1.42;0.80;;;23.60;49.60;;;;;;5031003;28;20026;-57
2022/09/03 10:18:45;;;;;;;1.40;0.60;;;23.70;50.00;;;;;;5031265;28;20032;-58
2022/09/03 10:21:35;;;;;;;3.05;0.90;;;23.90;50.10;;;;;;5027061;28;20045;-58
2022/09/03 10:24:24;;;;;;;2.90;0.70;;;24.00;49.20;;;;;;5030745;28;20053;-58
2022/09/03 10:26:49;;;;;;;;;;;24.20;49.70;;;;;;5029561;28;20021;-58
2022/09/03 10:29:22;;;;;;;4.20;1.10;;;24.30;49.00;;;;;;5030592;28;19913;-58
2022/09/03 10:32:10;;;;;;;1.83;0.77;;;24.40;48.70;;;;;;5028455;28;20477;-57
2022/09/03 10:34:36;;;;;;;1.50;0.70;;;24.50;48.70;;;;;;5030320;28;20021;-58
2022/09/03 10:37:18;;;;;;;1.90;0.80;;;24.50;48.50;;;;;;5030585;28;20487;-58
2022/09/03 10:40:06;;;;;;;3.15;0.90;;;24.70;48.40;;;;;;5030539;28;20017;-57
2022/09/03 10:42:44;;;;;;;3.30;0.88;;;24.90;48.50;;;;;;5029643;28;20100;-57
2022/09/03 10:45:31;;;;;;;2.75;0.80;;;25.10;47.60;;;;;;5032043;28;20381;-58
2022/09/03 10:48:21;;;;;;;2.58;0.80;;;25.30;47.60;;;;;;5032278;28;20036;-58
2022/09/03 10:51:03;;;;;;;1.73;0.60;;;25.50;47.20;;;;;;5032133;28;20057;-58
2022/09/03 10:53:55;;;;;;;2.25;0.90;;;25.90;47.80;;;;;;5031729;28;20493;-58
2022/09/03 10:56:48;;;;;;;2.15;0.73;;;26.30;46.60;;;;;;5027617;28;20026;-58
2022/09/03 10:59:19;;;;;;;3.72;0.80;;;27.40;44.90;;;;;;5043219;28;20472;-58
2022/09/03 11:01:51;;;;;;;1.38;0.82;;;29.30;44.20;;;;;;5035709;28;20070;-58
2022/09/03 11:04:44;;;;;;;2.13;1.08;;;31.10;41.90;;;;;;5035837;28;20472;-58
2022/09/03 11:07:13;;;;;;;2.35;1.02;;;31.80;40.00;;;;;;5035586;28;20017;-58
2022/09/03 11:09:47;;;;;;;2.47;0.93;;;32.40;38.50;;;;;;5035263;28;20499;-59
2022/09/03 11:12:22;;;;;;;2.63;1.33;;;31.80;38.30;;;;;;5035876;28;20100;-58
2022/09/03 11:15:02;;;;;;;0.82;0.52;;;31.80;39.30;;;;;;5034235;28;20021;-58
2022/09/03 11:17:36;;;;;;;2.22;0.80;;;32.50;39.80;;;;;;5035748;28;20080;-58
2022/09/03 11:20:24;;;;;;;1.60;0.70;;;33.30;39.20;;;;;;5024552;28;20027;-59
2022/09/03 11:23:03;;;;;;;1.10;0.73;;;34.50;38.80;;;;;;5035299;28;20053;-58
2022/09/03 11:25:34;;;;;;;;;;;36.00;37.80;;;;;;5034483;28;20032;-58
2022/09/03 11:28:16;;;;;;;0.95;0.70;;;37.50;37.20;;;;;;5034823;28;20131;-59
2022/09/03 11:31:03;;;;;;;3.33;0.90;;;38.80;36.20;;;;;;5035074;28;20162;-59
2022/09/03 11:33:31;;;;;;;2.00;0.88;;;39.80;35.00;;;;;;5035203;28;20029;-59
2022/09/03 11:35:59;;;;;;;2.03;1.13;;;39.50;32.40;;;;;;5030856;28;20538;-59
2022/09/03 11:38:29;;;;;;;3.78;1.33;;;38.30;31.90;;;;;;5031676;28;20044;-59
2022/09/03 11:41:21;;;;;;;2.53;0.80;;;37.50;32.60;;;;;;5032213;28;20551;-59
2022/09/03 11:43:47;;;;;;;2.83;0.80;;;38.20;33.70;;;;;;5031010;28;20024;-59
2022/09/03 11:46:27;;;;;;;0.95;0.70;;;39.60;33.20;;;;;;5031966;28;20112;-59
2022/09/03 11:48:56;;;;;;;1.75;0.95;;;41.40;32.80;;;;;;5029769;28;20056;-59
2022/09/03 11:51:34;;;;;;;1.70;1.08;;;42.60;31.70;;;;;;5024207;28;20029;-59
2022/09/03 11:54:01;;;;;;;2.15;1.35;;;42.80;30.40;;;;;;5022297;28;20025;-59
2022/09/03 11:56:27;;;;;;;3.00;1.27;;;42.60;29.70;;;;;;5034739;28;20040;-59
2022/09/03 11:59:14;;;;;;;3.92;1.30;;;42.10;29.40;;;;;;5032645;28;20502;-59
2022/09/03 12:02:00;;;;;;;1.45;1.10;;;41.40;30.30;;;;;;5031414;28;20386;-59
2022/09/03 12:04:39;;;;;;;1.67;1.00;;;42.40;30.50;;;;;;5032285;28;20026;-60
2022/09/03 12:07:23;;;;;;;1.98;1.25;;;42.40;30.00;;;;;;5031231;28;20026;-60
2022/09/03 12:10:04;;;;;;;2.38;1.10;;;42.90;30.00;;;;;;5029386;28;20223;-60
2022/09/03 12:12:45;;;;;;;2.75;1.25;;;42.70;29.60;;;;;;5030747;28;20028;-60
2022/09/03 12:15:35;;;;;;;4.22;1.38;;;40.80;29.50;;;;;;5027174;28;20380;-59
2022/09/03 12:18:24;;;;;;;1.58;1.20;;;38.30;30.60;;;;;;5030811;28;20604;-59
2022/09/03 12:20:59;;;;;;;3.80;1.38;;;37.00;32.30;;;;;;5031088;28;20053;-59
2022/09/03 12:23:27;;;;;;;1.63;1.00;;;36.60;32.60;;;;;;5024887;28;20026;-59
2022/09/03 12:25:53;;;;;;;2.47;0.95;;;36.40;32.90;;;;;;5032144;28;20498;-59
2022/09/03 12:28:24;;;;;;;2.03;1.00;;;37.20;33.00;;;;;;5030410;28;20456;-59
2022/09/03 12:30:52;;;;;;;3.33;1.20;;;37.80;32.70;;;;;;5031292;28;20053;-59
2022/09/03 12:33:19;;;;;;;1.73;1.00;;;37.20;32.10;;;;;;5046863;28;20167;-59
2022/09/03 12:35:58;;;;;;;2.57;1.00;;;36.40;32.90;;;;;;5036640;28;20029;-59
2022/09/03 12:38:25;;;;;;;5.35;1.35;;;36.50;33.40;;;;;;5044397;28;20017;-59
2022/09/03 12:40:51;;;;;;;2.25;1.25;;;36.00;33.30;;;;;;5039635;28;20029;-59
2022/09/03 12:43:17;;;;;;;2.30;1.20;;;35.70;34.00;;;;;;5039182;28;20021;-59
2022/09/03 12:45:45;;;;;;;2.95;1.20;;;35.40;33.70;;;;;;5050498;28;20021;-59
2022/09/03 12:48:15;;;;;;;2.55;1.33;;;35.50;33.90;;;;;;5031291;28;20030;-59
2022/09/03 12:50:41;;;;;;;2.47;1.00;;;35.10;33.70;;;;;;5036405;28;20033;-59
2022/09/03 12:53:10;;;;;;;2.40;0.98;;;34.40;34.20;;;;;;5035782;28;20136;-59
2022/09/03 12:55:52;;;;;;;2.33;1.27;;;33.90;34.80;;;;;;5038150;28;20032;-59
2022/09/03 12:58:34;;;;;;;3.42;1.05;;;33.30;35.50;;;;;;5040026;28;20017;-59
2022/09/03 13:01:08;;;;;;;3.05;1.00;;;32.90;35.90;;;;;;5035962;28;20025;-59
2022/09/03 13:03:53;;;;;;;1.05;0.77;;;32.70;36.20;;;;;;5038725;28;20024;-59
2022/09/03 13:06:21;;;;;;;1.10;0.70;;;32.60;36.40;;;;;;5039930;28;20025;-59
2022/09/03 13:08:59;;;;;;;2.53;1.20;;;32.10;36.70;;;;;;5034673;28;20167;-59
2022/09/03 13:11:26;;;;;;;;;;;32.00;37.10;;;;;;5034415;28;20078;-59
2022/09/03 13:13:59;;;;;;;1.95;0.90;;;32.10;36.90;;;;;;5044566;28;19905;-59